createdAt,value
2022-11-28T00:01:38.562Z,3.60
2022-11-28T00:04:07.276Z,3.54
2022-11-28T00:06:39.616Z,3.55
2022-11-28T00:09:08.407Z,3.51
2022-11-28T00:11:36.382Z,3.49
2022-11-28T00:14:03.441Z,3.48
2022-11-28T00:16:30.725Z,3.51
2022-11-28T00:19:00.929Z,3.48
2022-11-28T00:21:28.895Z,3.47
2022-11-28T00:23:55.950Z,3.53
2022-11-28T00:26:31.449Z,3.59
2022-11-28T00:28:59.767Z,3.61
2022-11-28T00:31:32.727Z,3.65
2022-11-28T00:34:02.288Z,3.67
2022-11-28T00:36:30.220Z,3.64
2022-11-28T00:38:57.191Z,3.61
2022-11-28T00:41:29.520Z,3.57
2022-11-28T00:43:57.387Z,3.57
2022-11-28T00:46:25.081Z,3.59
2022-11-28T00:48:52.674Z,3.61
2022-11-28T00:51:24.357Z,3.62
2022-11-28T00:53:54.757Z,3.61
2022-11-28T00:56:26.962Z,3.62
2022-11-28T00:58:54.432Z,3.59
2022-11-28T01:01:33.377Z,3.56
2022-11-28T01:04:04.474Z,3.54
2022-11-28T01:06:36.370Z,3.55
2022-11-28T01:09:15.800Z,3.55
2022-11-28T01:11:44.784Z,3.57
2022-11-28T01:34:16.055Z,3.51
2022-11-28T01:36:46.965Z,3.54
2022-11-28T01:50:23.924Z,3.45
2022-11-28T01:53:02.304Z,3.40
2022-11-28T01:55:37.739Z,3.34
2022-11-28T01:58:06.455Z,3.36
2022-11-28T02:00:36.179Z,3.41
2022-11-28T02:03:33.573Z,3.42
2022-11-28T02:06:01.101Z,3.30
2022-11-28T02:08:34.667Z,3.26
2022-11-28T02:11:43.321Z,3.24
2022-11-28T02:14:24.838Z,3.26
2022-11-28T02:17:31.967Z,3.05
2022-11-28T02:20:42.509Z,3.09
2022-11-28T02:23:46.487Z,3.14
2022-11-28T02:26:54.641Z,3.16
2022-11-28T02:29:52.252Z,3.03
2022-11-28T02:33:13.842Z,2.96
2022-11-28T02:36:08.235Z,3.12
2022-11-28T02:39:04.006Z,3.14
2022-11-28T02:41:57.979Z,3.11
2022-11-28T02:44:52.677Z,3.04
2022-11-28T02:47:37.928Z,2.97
2022-11-28T02:50:50.096Z,2.97
2022-11-28T02:53:24.447Z,2.96
2022-11-28T02:55:52.849Z,2.95
2022-11-28T02:58:19.833Z,2.98
2022-11-28T03:00:50.532Z,2.95
2022-11-28T03:04:06.354Z,2.96
2022-11-28T03:11:46.346Z,2.99
2022-11-28T03:14:57.566Z,3.04
2022-11-28T03:17:54.117Z,3.01
2022-11-28T03:20:37.779Z,3.06
2022-11-28T03:23:21.900Z,3.02
2022-11-28T03:26:00.885Z,2.95
2022-11-28T03:28:51.638Z,2.87
2022-11-28T03:31:27.892Z,2.95
2022-11-28T03:34:00.753Z,3.06
2022-11-28T03:36:35.787Z,3.13
2022-11-28T03:39:31.264Z,3.05
2022-11-28T03:42:10.004Z,2.97
2022-11-28T03:45:07.032Z,2.98
2022-11-28T03:47:43.703Z,3.00
2022-11-28T03:50:31.837Z,3.05
2022-11-28T03:53:10.761Z,3.06
2022-11-28T03:56:02.491Z,3.03
2022-11-28T03:58:56.424Z,3.03
2022-11-28T04:01:50.944Z,3.05
2022-11-28T04:04:40.709Z,3.08
2022-11-28T04:08:27.035Z,3.13
2022-11-28T04:11:17.496Z,3.10
2022-11-28T05:07:26.750Z,3.15
2022-11-28T05:09:56.012Z,3.07
2022-11-28T05:12:34.574Z,3.02
2022-11-28T05:31:19.434Z,2.79
2022-11-28T05:33:46.842Z,2.86
2022-11-28T05:36:16.533Z,2.93
2022-11-28T05:50:39.863Z,2.96
2022-11-28T05:53:09.685Z,2.95
2022-11-28T06:00:57.693Z,3.02
2022-11-28T06:03:25.042Z,3.02
2022-11-28T06:06:21.727Z,3.02
2022-11-28T06:08:51.447Z,3.03
2022-11-28T06:11:21.440Z,2.99
2022-11-28T06:13:50.589Z,2.98
2022-11-28T06:16:24.452Z,2.94
2022-11-28T06:53:49.177Z,3.12
2022-11-28T06:56:20.796Z,3.07
2022-11-28T06:58:54.652Z,3.06
2022-11-28T07:01:25.308Z,2.97
2022-11-28T07:03:54.421Z,3.02
2022-11-28T07:06:24.412Z,3.12
2022-11-28T07:08:52.124Z,3.18
2022-11-28T07:11:26.733Z,3.16
2022-11-28T07:13:55.509Z,3.15
2022-11-28T07:16:33.023Z,3.12
2022-11-28T07:19:00.633Z,3.13
2022-11-28T07:21:30.174Z,3.18
2022-11-28T07:23:59.808Z,3.25
2022-11-28T07:26:27.379Z,3.28
2022-11-28T07:28:56.103Z,3.30
2022-11-28T07:31:26.582Z,3.23
2022-11-28T07:33:54.432Z,3.19
2022-11-28T07:36:25.947Z,3.01
2022-11-28T07:39:02.846Z,3.07
2022-11-28T07:41:30.366Z,3.17
2022-11-28T07:44:03.482Z,3.25
2022-11-28T07:46:33.247Z,3.27
2022-11-28T07:59:17.280Z,3.37
2022-11-28T08:01:44.903Z,3.41
2022-11-28T08:04:11.968Z,3.44
2022-11-28T08:06:43.340Z,3.44
2022-11-28T08:10:27.739Z,3.38
2022-11-28T08:27:55.378Z,3.43
2022-11-28T08:40:18.777Z,3.61
2022-11-28T08:43:08.844Z,3.72
2022-11-28T08:45:40.242Z,3.52
2022-11-28T08:48:07.633Z,3.56
2022-11-28T08:50:54.402Z,3.61
2022-11-28T08:54:32.660Z,3.79
2022-11-28T08:58:22.489Z,3.95
2022-11-28T09:05:21.680Z,4.15
2022-11-28T09:22:29.453Z,4.59
2022-11-28T09:24:56.857Z,4.77
2022-11-28T09:27:26.841Z,4.84
2022-11-28T09:29:54.539Z,4.91
2022-11-28T09:32:22.119Z,4.97
2022-11-28T09:34:51.070Z,5.04
2022-11-28T09:37:18.952Z,5.08
2022-11-28T09:40:11.512Z,5.20
2022-11-28T09:42:43.653Z,5.28
2022-11-28T09:45:20.629Z,5.34
2022-11-28T09:47:55.502Z,5.47
2022-11-28T09:50:30.780Z,5.50
2022-11-28T09:53:21.429Z,5.52
2022-11-28T09:56:00.326Z,5.59
2022-11-28T09:58:48.531Z,5.68
2022-11-28T10:01:41.232Z,5.72
2022-11-28T10:04:18.660Z,5.78
2022-11-28T10:07:28.672Z,5.85
2022-11-28T10:10:24.451Z,5.96
2022-11-28T10:13:23.782Z,6.17
2022-11-28T10:16:12.181Z,6.17
2022-11-28T10:18:48.586Z,6.24
2022-11-28T10:21:36.950Z,6.28
2022-11-28T10:24:15.374Z,6.30
2022-11-28T10:27:01.860Z,6.44
2022-11-28T10:30:01.746Z,6.55
2022-11-28T10:32:40.830Z,6.61
2022-11-28T10:35:49.118Z,6.70
2022-11-28T10:38:17.629Z,6.69
2022-11-28T10:41:03.646Z,6.68
2022-11-28T10:44:17.061Z,6.69
2022-11-28T10:47:12.692Z,6.72
2022-11-28T10:50:04.615Z,6.82
2022-11-28T10:52:55.980Z,6.87
2022-11-28T10:56:01.972Z,6.69
2022-11-28T10:59:10.956Z,6.85
2022-11-28T11:01:43.749Z,6.75
2022-11-28T11:04:21.727Z,6.81
2022-11-28T11:07:19.111Z,6.78
2022-11-28T11:18:32.257Z,6.85
2022-11-28T11:21:10.755Z,6.89
2022-11-28T11:28:42.541Z,6.66
2022-11-28T11:31:25.680Z,6.80
2022-11-28T11:38:38.015Z,6.74
2022-11-28T11:41:33.507Z,6.45
2022-11-28T11:44:15.868Z,6.70
2022-11-28T11:47:04.989Z,6.86
2022-11-28T11:49:44.160Z,6.97
2022-11-28T11:52:12.812Z,6.82
2022-11-28T11:55:11.389Z,6.83
2022-11-28T11:57:47.792Z,6.82
2022-11-28T12:00:23.939Z,6.49
2022-11-28T12:03:12.417Z,6.42
2022-11-28T12:06:13.751Z,6.59
2022-11-28T12:09:08.535Z,6.53
2022-11-28T12:11:52.392Z,6.80
2022-11-28T12:14:36.621Z,6.61
2022-11-28T12:18:03.600Z,6.53
2022-11-28T12:21:06.427Z,6.52
2022-11-28T12:23:53.928Z,6.50
2022-11-28T12:26:44.156Z,6.79
2022-11-28T12:29:35.884Z,6.29
2022-11-28T12:32:51.952Z,6.52
2022-11-28T12:35:42.701Z,6.54
2022-11-28T12:38:41.606Z,6.72
2022-11-28T12:41:39.737Z,6.82
2022-11-28T12:44:27.386Z,6.34
2022-11-28T12:47:20.296Z,6.05
2022-11-28T12:50:30.365Z,6.25
2022-11-28T12:53:43.718Z,6.40
2022-11-28T12:56:45.465Z,6.42
2022-11-28T12:59:30.599Z,6.52
2022-11-28T13:02:29.510Z,6.44
2022-11-28T13:05:37.541Z,6.21
2022-11-28T13:08:37.293Z,6.41
2022-11-28T13:11:55.101Z,6.44
2022-11-28T13:14:58.802Z,6.48
2022-11-28T13:18:01.236Z,6.35
2022-11-28T13:20:42.864Z,6.01
2022-11-28T13:24:07.197Z,6.29
2022-11-28T13:27:01.716Z,6.10
2022-11-28T13:29:47.320Z,6.32
2022-11-28T13:32:42.105Z,6.27
2022-11-28T13:38:34.853Z,6.35
2022-11-28T13:49:40.449Z,6.11
2022-11-28T13:52:20.141Z,6.14
2022-11-28T13:54:50.375Z,5.86
2022-11-28T13:57:26.216Z,5.90
2022-11-28T14:00:21.502Z,5.80
2022-11-28T14:02:58.220Z,5.93
2022-11-28T14:05:37.965Z,5.90
2022-11-28T14:08:07.316Z,5.87
2022-11-28T14:10:53.916Z,5.92
2022-11-28T14:13:52.356Z,5.73
2022-11-28T14:16:36.545Z,5.72
2022-11-28T14:23:38.899Z,5.61
2022-11-28T14:57:23.682Z,5.35
2022-11-28T14:59:54.300Z,5.31
2022-11-28T15:18:14.718Z,4.96
2022-11-28T15:42:01.201Z,4.47
2022-11-28T15:44:31.985Z,4.41
2022-11-28T15:46:59.921Z,4.40
2022-11-28T15:49:35.362Z,4.34
2022-11-28T15:52:04.988Z,4.35
